Time;durP1;ratioP1;P1;durP2;ratioP2;P2;SDS_P1;SDS_P2;PMS_P1;PMS_P2;Temp;Humidity;BMP_temperature;BMP_pressure;BME280_temperature;BME280_humidity;BME280_pressure;Samples;Min_cycle;Max_cycle;Signal;HPM_P1;HPM_P2
2023/03/19 00:02:18;;;;;;;0.65;0.63;;;12.00;99.90;;;;;;5095996;28;20028;-75
2023/03/19 00:04:47;;;;;;;2.53;0.82;;;12.00;99.90;;;;;;5095772;28;20031;-76
2023/03/19 00:07:14;;;;;;;0.35;0.35;;;12.00;99.90;;;;;;5095654;28;20487;-76
2023/03/19 00:09:41;;;;;;;0.32;0.32;;;11.90;99.90;;;;;;5095760;28;20016;-77
2023/03/19 00:12:07;;;;;;;0.70;0.55;;;11.90;99.90;;;;;;5095214;28;20036;-77
2023/03/19 00:14:33;;;;;;;0.60;0.52;;;11.90;99.90;;;;;;5095724;28;20035;-77
2023/03/19 00:17:00;;;;;;;0.10;0.10;;;11.90;99.90;;;;;;5095483;28;20023;-77
2023/03/19 00:19:26;;;;;;;0.45;0.45;;;11.90;99.90;;;;;;5095324;28;20028;-76
2023/03/19 00:21:51;;;;;;;6.35;1.55;;;11.90;99.90;;;;;;5095229;28;20024;-76
2023/03/19 00:24:17;;;;;;;0.68;0.68;;;11.80;99.90;;;;;;5094300;28;20020;-76
2023/03/19 00:26:43;;;;;;;0.35;0.35;;;11.60;99.90;;;;;;5093890;28;20535;-77
2023/03/19 00:29:09;;;;;;;0.43;0.38;;;11.70;99.90;;;;;;5094056;28;20017;-77
2023/03/19 00:31:35;;;;;;;0.22;0.22;;;11.80;99.90;;;;;;5095302;28;20020;-76
2023/03/19 00:34:02;;;;;;;0.38;0.38;;;11.60;99.90;;;;;;5093643;28;20453;-76
2023/03/19 00:36:28;;;;;;;1.00;0.85;;;11.50;99.90;;;;;;5093951;28;20044;-77
2023/03/19 00:38:56;;;;;;;1.25;0.70;;;11.50;99.90;;;;;;5093023;28;20425;-74
2023/03/19 00:41:22;;;;;;;0.15;0.15;;;11.40;99.90;;;;;;5093499;28;20024;-76
2023/03/19 00:43:55;;;;;;;0.20;0.20;;;11.50;99.90;;;;;;5094922;28;20185;-76
2023/03/19 00:46:22;;;;;;;0.10;0.10;;;11.30;99.90;;;;;;5095094;28;20118;-75
2023/03/19 00:48:49;;;;;;;1.05;0.98;;;11.30;99.90;;;;;;5094386;28;20067;-76
2023/03/19 00:51:15;;;;;;;0.10;0.10;;;11.20;99.90;;;;;;5093180;28;20486;-76
2023/03/19 00:53:43;;;;;;;0.40;0.40;;;11.30;99.90;;;;;;5094789;28;20020;-77
2023/03/19 00:56:10;;;;;;;0.10;0.10;;;11.20;99.90;;;;;;5094543;28;20491;-77
2023/03/19 00:58:40;;;;;;;0.10;0.10;;;11.20;99.90;;;;;;5094806;28;20027;-76
2023/03/19 01:01:11;;;;;;;0.32;0.30;;;11.30;99.90;;;;;;5093234;28;20048;-76
2023/03/19 01:03:37;;;;;;;0.93;0.93;;;11.50;99.90;;;;;;5094403;28;20020;-76
2023/03/19 01:06:05;;;;;;;0.68;0.68;;;11.80;99.90;;;;;;5094713;28;20495;-77
2023/03/19 01:08:31;;;;;;;0.55;0.40;;;11.60;99.90;;;;;;5093102;28;20063;-76
2023/03/19 01:11:04;;;;;;;0.60;0.60;;;11.70;99.90;;;;;;5093050;28;20059;-76
2023/03/19 01:13:31;;;;;;;0.20;0.20;;;11.60;99.90;;;;;;5092935;28;20058;-77
2023/03/19 01:15:56;;;;;;;0.20;0.17;;;11.50;99.90;;;;;;5093329;28;20016;-77
2023/03/19 01:18:22;;;;;;;0.52;0.52;;;11.50;99.90;;;;;;5092893;28;20136;-75
2023/03/19 01:20:48;;;;;;;0.10;0.10;;;11.50;99.90;;;;;;5094388;28;20078;-75
2023/03/19 01:23:14;;;;;;;0.20;0.20;;;11.50;99.90;;;;;;5094121;28;20039;-75
2023/03/19 01:25:40;;;;;;;0.55;0.55;;;11.30;99.90;;;;;;5075726;28;20468;-76
2023/03/19 01:28:06;;;;;;;1.75;0.30;;;11.40;99.90;;;;;;5072930;28;20025;-76
2023/03/19 01:30:33;;;;;;;1.27;0.30;;;11.40;99.90;;;;;;5072539;28;20028;-77
2023/03/19 01:33:04;;;;;;;0.30;0.30;;;11.40;99.90;;;;;;5073940;28;20056;-77
2023/03/19 01:35:35;;;;;;;1.13;0.90;;;11.10;99.90;;;;;;5072643;28;20024;-76
2023/03/19 01:38:02;;;;;;;5.22;1.42;;;10.90;99.90;;;;;;5072374;28;20064;-76
2023/03/19 01:40:30;;;;;;;0.10;0.10;;;10.90;99.90;;;;;;5071940;28;20048;-76
2023/03/19 01:43:19;;;;;;;0.47;0.47;;;10.90;99.90;;;;;;5072433;28;20016;-75
2023/03/19 01:46:05;;;;;;;0.20;0.20;;;11.00;99.90;;;;;;5072154;28;20404;-73
2023/03/19 01:48:56;;;;;;;0.88;0.82;;;11.00;99.90;;;;;;5072018;28;20774;-76
2023/03/19 01:51:26;;;;;;;0.28;0.15;;;10.90;99.90;;;;;;5072226;28;20021;-76
2023/03/19 01:54:01;;;;;;;0.80;0.75;;;11.00;99.90;;;;;;5073060;28;20529;-76
2023/03/19 01:56:40;;;;;;;0.20;0.20;;;10.80;99.90;;;;;;5072284;28;20028;-77
2023/03/19 01:59:39;;;;;;;5.32;0.82;;;10.80;99.90;;;;;;5071592;28;20029;-77
2023/03/19 02:02:32;;;;;;;0.95;0.73;;;10.70;99.90;;;;;;5072422;28;20052;-77
2023/03/19 02:05:11;;;;;;;1.75;1.52;;;10.60;99.90;;;;;;5071869;28;20021;-76
2023/03/19 02:07:40;;;;;;;0.17;0.17;;;10.40;99.90;;;;;;5071638;28;20451;-76
2023/03/19 02:10:12;;;;;;;3.72;1.15;;;10.60;99.90;;;;;;5072909;28;20040;-76
2023/03/19 02:12:38;;;;;;;0.10;0.10;;;10.60;99.90;;;;;;5071722;28;20086;-77
2023/03/19 02:15:06;;;;;;;0.10;0.10;;;10.50;99.90;;;;;;5073008;28;20021;-77
2023/03/19 02:17:32;;;;;;;5.47;1.40;;;10.50;99.90;;;;;;5071832;28;20028;-77
2023/03/19 02:20:05;;;;;;;0.65;0.65;;;10.40;99.90;;;;;;5071473;28;20404;-77
2023/03/19 02:22:31;;;;;;;1.88;1.42;;;10.50;99.90;;;;;;5071475;28;20056;-77
2023/03/19 02:25:27;;;;;;;1.38;1.27;;;10.50;99.90;;;;;;5071526;28;20029;-76
2023/03/19 02:27:53;;;;;;;0.65;0.35;;;10.40;99.90;;;;;;5071723;28;20473;-76
2023/03/19 02:30:29;;;;;;;0.10;0.10;;;10.30;99.90;;;;;;5071547;28;20048;-76
2023/03/19 02:32:56;;;;;;;0.30;0.30;;;10.30;99.90;;;;;;5072037;28;20032;-72
2023/03/19 02:35:23;;;;;;;0.10;0.10;;;10.30;99.90;;;;;;5071148;28;20017;-72
2023/03/19 02:37:48;;;;;;;0.10;0.10;;;10.10;99.90;;;;;;5072457;28;20055;-72
2023/03/19 02:40:15;;;;;;;0.25;0.25;;;10.30;99.90;;;;;;5071258;28;20060;-71
2023/03/19 02:42:41;;;;;;;0.68;0.47;;;10.30;99.90;;;;;;5071630;28;20060;-71
2023/03/19 02:45:07;;;;;;;0.10;0.10;;;10.30;99.90;;;;;;5071341;28;20021;-71
2023/03/19 02:47:33;;;;;;;0.10;0.10;;;10.30;99.90;;;;;;5072727;28;20021;-71
2023/03/19 02:49:59;;;;;;;0.28;0.22;;;10.40;99.90;;;;;;5072471;28;20040;-71
2023/03/19 02:52:26;;;;;;;1.13;0.63;;;10.20;99.90;;;;;;5072400;28;20008;-72
2023/03/19 02:54:51;;;;;;;0.10;0.10;;;10.20;99.90;;;;;;5072638;28;20392;-71
2023/03/19 02:57:17;;;;;;;0.10;0.10;;;10.10;99.90;;;;;;5071184;28;20033;-71
2023/03/19 02:59:43;;;;;;;1.13;0.93;;;10.30;99.90;;;;;;5072538;28;20035;-71
2023/03/19 03:02:09;;;;;;;0.20;0.20;;;10.20;99.90;;;;;;5071079;28;20558;-71
2023/03/19 03:04:36;;;;;;;1.10;1.00;;;10.10;99.90;;;;;;5071092;28;20060;-71
2023/03/19 03:07:03;;;;;;;0.40;0.40;;;10.00;99.90;;;;;;5054373;28;20033;-71
2023/03/19 03:09:29;;;;;;;7.18;1.55;;;10.10;99.90;;;;;;5071198;28;20560;-71
2023/03/19 03:11:56;;;;;;;0.47;0.47;;;10.10;99.90;;;;;;5073429;28;20029;-70
2023/03/19 03:14:22;;;;;;;0.38;0.38;;;9.90;99.90;;;;;;5076335;28;20101;-71
2023/03/19 03:16:47;;;;;;;0.10;0.10;;;9.70;99.90;;;;;;5076552;28;20553;-71
2023/03/19 03:19:13;;;;;;;1.40;1.13;;;9.70;99.90;;;;;;5076214;28;20028;-71
2023/03/19 03:21:40;;;;;;;0.52;0.28;;;9.60;99.90;;;;;;5074926;28;20025;-70
2023/03/19 03:24:06;;;;;;;0.10;0.10;;;9.50;99.90;;;;;;5058300;28;20035;-71
2023/03/19 03:26:34;;;;;;;0.10;0.10;;;9.60;99.90;;;;;;5076091;28;20060;-76
2023/03/19 03:29:00;;;;;;;0.10;0.10;;;9.70;99.90;;;;;;5076476;28;20024;-76
2023/03/19 03:31:26;;;;;;;0.10;0.10;;;9.60;99.90;;;;;;5075975;28;20036;-76
2023/03/19 03:33:52;;;;;;;1.38;1.10;;;9.60;99.90;;;;;;5076238;28;20016;-75
2023/03/19 03:36:18;;;;;;;1.13;0.88;;;9.70;99.90;;;;;;5075651;28;20043;-75
2023/03/19 03:38:44;;;;;;;1.80;0.65;;;9.60;99.90;;;;;;5075992;28;20024;-75
2023/03/19 03:41:11;;;;;;;0.10;0.10;;;9.60;99.90;;;;;;5074546;28;20037;-75
2023/03/19 03:43:38;;;;;;;0.10;0.10;;;9.60;99.90;;;;;;5075914;28;20031;-73
2023/03/19 03:46:04;;;;;;;0.40;0.35;;;9.70;99.90;;;;;;5074632;28;20029;-77
2023/03/19 03:48:30;;;;;;;1.45;0.65;;;9.70;99.90;;;;;;5074258;28;20052;-74
2023/03/19 03:50:56;;;;;;;0.10;0.10;;;9.50;99.90;;;;;;5074510;28;20480;-74
2023/03/19 03:53:26;;;;;;;1.75;0.82;;;9.60;99.90;;;;;;5074291;28;20021;-73
2023/03/19 03:55:51;;;;;;;1.02;0.90;;;9.60;99.90;;;;;;5074535;28;20043;-74
2023/03/19 03:58:20;;;;;;;1.75;0.95;;;9.50;99.90;;;;;;5074387;28;20020;-74
2023/03/19 04:00:46;;;;;;;0.10;0.10;;;9.40;99.90;;;;;;5075442;28;20040;-74
2023/03/19 04:03:12;;;;;;;0.30;0.30;;;9.50;99.90;;;;;;5074158;28;20031;-77
2023/03/19 04:05:38;;;;;;;0.22;0.22;;;9.50;99.90;;;;;;5073909;28;20028;-75
2023/03/19 04:08:06;;;;;;;1.27;1.02;;;9.40;99.90;;;;;;5074091;28;20028;-74
2023/03/19 04:10:34;;;;;;;0.10;0.10;;;9.60;99.90;;;;;;5075255;28;20093;-73
2023/03/19 04:13:00;;;;;;;0.10;0.10;;;9.50;99.90;;;;;;5075383;28;20028;-74
2023/03/19 04:15:28;;;;;;;0.63;0.63;;;9.50;99.90;;;;;;5074075;28;20440;-73
2023/03/19 04:17:56;;;;;;;0.10;0.10;;;9.40;99.90;;;;;;5073969;28;20028;-75
2023/03/19 04:20:22;;;;;;;0.10;0.10;;;9.50;99.90;;;;;;5073427;28;20380;-75
2023/03/19 04:22:48;;;;;;;0.65;0.28;;;9.50;99.90;;;;;;5073538;28;20031;-74
2023/03/19 04:25:14;;;;;;;0.20;0.20;;;9.60;99.90;;;;;;5074636;28;20418;-74
2023/03/19 04:27:40;;;;;;;0.55;0.55;;;9.60;99.90;;;;;;5075048;28;20111;-75
2023/03/19 04:30:08;;;;;;;0.38;0.38;;;9.60;99.90;;;;;;5073977;28;20024;-75
2023/03/19 04:32:35;;;;;;;0.20;0.20;;;9.50;99.90;;;;;;5075190;28;20354;-74
2023/03/19 04:35:02;;;;;;;0.55;0.55;;;9.40;99.90;;;;;;5073572;28;20028;-74
2023/03/19 04:37:28;;;;;;;0.38;0.38;;;9.30;99.90;;;;;;5056785;28;20016;-73
2023/03/19 04:39:54;;;;;;;0.35;0.35;;;9.20;99.90;;;;;;5073428;28;20582;-74
2023/03/19 04:42:20;;;;;;;41.30;1.08;;;9.30;99.90;;;;;;5073499;28;20107;-74
2023/03/19 04:45:00;;;;;;;0.10;0.10;;;9.10;99.90;;;;;;5073499;28;20052;-73
2023/03/19 04:47:26;;;;;;;0.10;0.10;;;9.10;99.90;;;;;;5073094;28;20020;-74
2023/03/19 04:49:56;;;;;;;0.10;0.10;;;9.20;99.90;;;;;;5073466;28;20051;-73
2023/03/19 04:52:23;;;;;;;0.10;0.10;;;9.20;99.90;;;;;;5073111;28;20106;-73
2023/03/19 04:54:49;;;;;;;0.15;0.15;;;9.20;99.90;;;;;;5073460;28;20059;-73
2023/03/19 04:57:16;;;;;;;1.20;1.15;;;9.20;99.90;;;;;;5073271;28;20016;-76
2023/03/19 04:59:44;;;;;;;0.80;0.75;;;9.20;99.90;;;;;;5073246;28;20029;-76
2023/03/19 05:02:12;;;;;;;0.17;0.17;;;9.10;99.90;;;;;;5072682;28;20480;-76
2023/03/19 05:04:39;;;;;;;4.10;0.30;;;8.90;99.90;;;;;;5072772;28;20025;-77
2023/03/19 05:07:08;;;;;;;1.75;0.52;;;9.00;99.90;;;;;;5073084;28;20020;-74
2023/03/19 05:09:35;;;;;;;0.10;0.10;;;8.90;99.90;;;;;;5072999;28;20017;-71
2023/03/19 05:12:01;;;;;;;0.10;0.10;;;9.00;99.90;;;;;;5073371;28;20094;-71
2023/03/19 05:14:34;;;;;;;0.10;0.10;;;9.00;99.90;;;;;;5072593;28;20070;-69
2023/03/19 05:17:09;;;;;;;1.92;1.83;;;9.00;99.90;;;;;;5072810;28;20043;-69
2023/03/19 05:19:58;;;;;;;0.20;0.20;;;9.00;99.90;;;;;;5070912;28;20105;-70
2023/03/19 05:22:25;;;;;;;0.10;0.10;;;8.70;99.90;;;;;;5072866;28;20135;-70
2023/03/19 05:24:51;;;;;;;0.10;0.10;;;8.90;99.90;;;;;;5072680;28;20025;-70
2023/03/19 05:27:17;;;;;;;0.10;0.10;;;8.90;99.90;;;;;;5072847;28;20059;-71
2023/03/19 05:29:49;;;;;;;0.10;0.10;;;8.80;99.90;;;;;;5072500;28;20055;-71
2023/03/19 05:32:36;;;;;;;0.20;0.20;;;8.90;99.90;;;;;;5073495;28;20043;-71
2023/03/19 05:35:04;;;;;;;0.10;0.10;;;9.00;99.90;;;;;;5072482;28;20020;-70
2023/03/19 05:37:32;;;;;;;0.10;0.10;;;9.00;99.90;;;;;;5055865;28;20021;-71
2023/03/19 05:39:59;;;;;;;0.10;0.10;;;9.10;99.90;;;;;;5072041;28;20035;-71
2023/03/19 05:42:25;;;;;;;0.20;0.20;;;9.10;99.90;;;;;;5072548;28;20028;-71
2023/03/19 05:44:54;;;;;;;0.20;0.20;;;8.90;99.90;;;;;;5072030;28;20111;-70
2023/03/19 05:47:23;;;;;;;0.17;0.17;;;8.90;99.90;;;;;;5071621;28;20415;-70
2023/03/19 05:49:53;;;;;;;0.40;0.40;;;8.90;99.90;;;;;;5071570;28;20401;-70
2023/03/19 05:52:19;;;;;;;1.38;1.33;;;8.80;99.90;;;;;;5071769;28;20119;-70
2023/03/19 05:54:48;;;;;;;0.10;0.10;;;8.80;99.90;;;;;;5055650;28;20044;-71
2023/03/19 05:57:34;;;;;;;0.10;0.10;;;8.80;99.90;;;;;;5072317;28;20130;-70
2023/03/19 06:00:09;;;;;;;0.20;0.20;;;8.90;99.90;;;;;;5071853;28;20126;-70
2023/03/19 06:02:35;;;;;;;0.10;0.10;;;9.00;99.90;;;;;;5073274;28;20029;-70
2023/03/19 06:05:20;;;;;;;0.10;0.10;;;9.00;99.90;;;;;;5073223;28;20090;-70
2023/03/19 06:07:46;;;;;;;0.52;0.52;;;9.00;99.90;;;;;;5071465;28;20044;-70
2023/03/19 06:10:26;;;;;;;0.10;0.10;;;9.10;99.90;;;;;;5071754;28;20086;-71
2023/03/19 06:12:54;;;;;;;0.10;0.10;;;9.10;99.90;;;;;;5071960;28;20017;-71
2023/03/19 06:15:52;;;;;;;0.10;0.10;;;8.80;99.90;;;;;;5049100;28;20115;-70
2023/03/19 06:18:23;;;;;;;0.10;0.10;;;8.90;99.90;;;;;;5071706;28;20533;-71
2023/03/19 06:20:49;;;;;;;0.10;0.10;;;8.90;99.90;;;;;;5071525;28;20028;-70
2023/03/19 06:23:16;;;;;;;0.10;0.10;;;9.00;99.90;;;;;;5071878;28;20095;-70
2023/03/19 06:25:42;;;;;;;8.48;5.95;;;9.20;99.90;;;;;;5071703;28;20055;-70
2023/03/19 06:28:07;;;;;;;4.18;3.75;;;9.20;99.90;;;;;;5071532;28;20463;-70
2023/03/19 06:30:38;;;;;;;0.32;0.32;;;9.30;99.90;;;;;;5071038;28;20055;-70
2023/03/19 06:33:15;;;;;;;0.10;0.10;;;9.40;99.90;;;;;;5071520;28;20020;-71
2023/03/19 06:35:41;;;;;;;0.10;0.10;;;9.70;99.90;;;;;;5071487;28;20020;-70
2023/03/19 06:38:06;;;;;;;0.10;0.10;;;9.90;99.90;;;;;;5071456;28;20487;-71
2023/03/19 06:40:33;;;;;;;0.35;0.35;;;9.80;99.90;;;;;;5072465;28;20486;-71
2023/03/19 06:42:58;;;;;;;0.17;0.17;;;9.70;99.90;;;;;;5072793;28;20529;-70
2023/03/19 06:45:24;;;;;;;0.20;0.20;;;9.80;99.90;;;;;;5070733;28;20070;-70
2023/03/19 06:47:50;;;;;;;0.65;0.20;;;9.50;99.90;;;;;;5072305;28;20024;-71
2023/03/19 06:50:16;;;;;;;0.25;0.25;;;9.70;99.90;;;;;;5072578;28;20094;-75
2023/03/19 06:52:43;;;;;;;0.50;0.50;;;9.90;99.90;;;;;;5072628;28;20024;-75
2023/03/19 06:55:10;;;;;;;0.10;0.10;;;9.80;99.90;;;;;;5072568;28;20476;-75
2023/03/19 06:57:36;;;;;;;0.22;0.22;;;9.60;99.90;;;;;;5072595;28;20031;-76
2023/03/19 07:00:03;;;;;;;0.10;0.10;;;9.80;99.90;;;;;;5072358;28;20400;-77
2023/03/19 07:02:29;;;;;;;1.05;0.95;;;9.70;99.90;;;;;;5071318;28;20027;-77
2023/03/19 07:04:55;;;;;;;9.25;2.35;;;9.70;99.90;;;;;;5071181;28;20024;-76
2023/03/19 07:07:21;;;;;;;0.28;0.28;;;9.50;99.90;;;;;;5071248;28;20390;-75
2023/03/19 07:09:46;;;;;;;0.20;0.20;;;9.60;99.90;;;;;;5072586;28;20188;-73
2023/03/19 07:12:12;;;;;;;20.83;0.75;;;9.60;99.90;;;;;;5072304;28;20033;-74
2023/03/19 07:14:38;;;;;;;0.45;0.40;;;9.80;99.90;;;;;;5072226;28;20037;-75
2023/03/19 07:17:04;;;;;;;4.57;0.35;;;9.70;99.90;;;;;;5072459;28;20104;-73
2023/03/19 07:19:30;;;;;;;0.98;0.93;;;9.90;99.90;;;;;;5072273;28;20029;-73
2023/03/19 07:21:55;;;;;;;1.60;1.25;;;10.00;99.90;;;;;;5072243;28;20025;-76
2023/03/19 07:24:21;;;;;;;0.85;0.55;;;10.10;99.90;;;;;;5070909;28;20117;-76
2023/03/19 07:26:47;;;;;;;0.10;0.10;;;10.30;99.90;;;;;;5072395;28;20193;-75
2023/03/19 07:29:13;;;;;;;0.85;0.75;;;10.40;99.90;;;;;;5071856;28;20029;-75
2023/03/19 07:31:39;;;;;;;0.47;0.47;;;10.20;99.90;;;;;;5071055;28;20107;-75
2023/03/19 07:34:05;;;;;;;0.32;0.32;;;10.50;99.90;;;;;;5066759;28;20130;-74
2023/03/19 07:36:31;;;;;;;0.40;0.40;;;10.50;99.90;;;;;;5071786;28;20110;-75
2023/03/19 07:38:57;;;;;;;0.10;0.10;;;10.60;99.90;;;;;;5075491;28;20167;-75
2023/03/19 07:41:22;;;;;;;0.47;0.47;;;10.70;99.90;;;;;;5086632;28;20037;-75
2023/03/19 07:43:48;;;;;;;2.97;2.28;;;10.70;99.90;;;;;;5077858;28;20423;-75
2023/03/19 07:46:14;;;;;;;0.20;0.20;;;10.50;99.90;;;;;;5075823;28;20033;-76
2023/03/19 07:48:40;;;;;;;0.13;0.13;;;10.80;99.90;;;;;;5073124;28;20107;-76
2023/03/19 07:51:06;;;;;;;0.65;0.65;;;11.10;99.90;;;;;;5087879;28;20491;-75
2023/03/19 07:53:33;;;;;;;2.20;1.25;;;11.20;99.90;;;;;;5085160;28;20039;-75
2023/03/19 07:55:58;;;;;;;14.88;3.42;;;11.10;99.90;;;;;;5075667;28;20052;-74
2023/03/19 07:58:25;;;;;;;0.22;0.22;;;10.80;99.90;;;;;;5073563;28;20082;-76
2023/03/19 08:00:52;;;;;;;1.10;0.80;;;10.80;99.90;;;;;;5065987;28;20123;-70
2023/03/19 08:03:17;;;;;;;0.35;0.30;;;11.10;99.90;;;;;;5077214;28;20043;-71
2023/03/19 08:05:43;;;;;;;0.57;0.57;;;11.20;99.90;;;;;;5073930;28;20039;-71
2023/03/19 08:08:09;;;;;;;0.17;0.17;;;11.40;99.90;;;;;;5073142;28;20034;-70
2023/03/19 08:10:34;;;;;;;5.75;1.65;;;11.70;99.90;;;;;;5073684;28;20056;-70
2023/03/19 08:13:00;;;;;;;0.20;0.20;;;11.70;99.90;;;;;;5080804;28;20024;-70
2023/03/19 08:15:26;;;;;;;4.40;1.63;;;11.80;99.90;;;;;;5077156;28;20415;-70
2023/03/19 08:18:03;;;;;;;0.10;0.10;;;11.70;99.90;;;;;;5079865;28;20036;-71
2023/03/19 08:20:30;;;;;;;0.55;0.55;;;11.80;99.90;;;;;;5077373;28;20024;-70
2023/03/19 08:22:56;;;;;;;1.20;1.20;;;11.90;99.90;;;;;;5079045;28;20488;-71
2023/03/19 08:25:22;;;;;;;25.75;1.38;;;12.40;99.90;;;;;;5084039;28;20038;-70
2023/03/19 08:27:49;;;;;;;0.60;0.30;;;12.50;99.90;;;;;;5073728;28;20128;-70
2023/03/19 08:30:15;;;;;;;0.57;0.55;;;12.20;99.90;;;;;;5072450;28;20028;-70
2023/03/19 08:32:43;;;;;;;0.10;0.10;;;12.40;99.90;;;;;;5067728;28;20033;-71
2023/03/19 08:35:10;;;;;;;0.15;0.15;;;12.60;99.90;;;;;;5069295;28;20023;-71
2023/03/19 08:37:35;;;;;;;0.10;0.10;;;12.70;99.90;;;;;;5073952;28;20035;-71
2023/03/19 08:40:01;;;;;;;1.70;1.55;;;12.80;99.90;;;;;;5081181;28;20041;-71
2023/03/19 08:42:28;;;;;;;3.08;2.13;;;12.90;99.90;;;;;;5079890;28;20039;-70
2023/03/19 08:44:53;;;;;;;3.30;2.20;;;12.60;99.90;;;;;;5061442;28;20043;-70
2023/03/19 08:47:23;;;;;;;0.63;0.57;;;12.50;99.90;;;;;;5070906;28;20021;-70
2023/03/19 08:49:50;;;;;;;0.98;0.88;;;12.60;99.90;;;;;;5072923;28;20029;-70
2023/03/19 08:52:16;;;;;;;1.10;0.35;;;12.60;99.90;;;;;;5076537;28;20105;-70
2023/03/19 08:54:42;;;;;;;0.10;0.10;;;12.50;99.90;;;;;;5079301;28;20025;-70
2023/03/19 08:57:08;;;;;;;0.57;0.57;;;12.40;99.90;;;;;;5071845;28;20735;-70
2023/03/19 08:59:34;;;;;;;0.20;0.13;;;12.50;99.90;;;;;;5057648;28;20480;-70
2023/03/19 09:02:00;;;;;;;1.67;1.58;;;12.70;99.90;;;;;;5079546;28;20032;-70
2023/03/19 09:04:26;;;;;;;7.53;3.00;;;12.70;99.90;;;;;;5072772;28;20020;-70
2023/03/19 09:06:51;;;;;;;1.65;1.55;;;12.20;99.90;;;;;;5083980;28;20027;-70
2023/03/19 09:09:18;;;;;;;4.40;2.08;;;12.10;99.90;;;;;;5076220;28;20032;-70
2023/03/19 09:11:45;;;;;;;2.47;1.75;;;12.00;99.90;;;;;;5072565;28;20032;-71
2023/03/19 09:14:11;;;;;;;6.50;3.70;;;12.00;99.90;;;;;;5081990;28;20024;-70
2023/03/19 09:16:38;;;;;;;18.73;7.65;;;12.10;99.90;;;;;;5081982;28;20025;-70
2023/03/19 09:19:03;;;;;;;5.43;3.95;;;11.70;99.90;;;;;;5083259;28;20044;-69
2023/03/19 09:21:29;;;;;;;19.33;5.18;;;11.70;99.90;;;;;;5074767;28;20531;-70
2023/03/19 09:23:55;;;;;;;2.92;2.20;;;11.80;99.90;;;;;;5084894;28;20100;-70
2023/03/19 09:26:21;;;;;;;2.67;1.52;;;11.60;99.90;;;;;;5085680;28;20036;-71
2023/03/19 09:28:46;;;;;;;2.15;1.98;;;11.70;99.90;;;;;;5084158;28;20021;-69
2023/03/19 09:31:12;;;;;;;10.25;5.32;;;11.80;99.90;;;;;;5078618;28;20012;-70
2023/03/19 09:33:38;;;;;;;3.70;1.55;;;11.80;99.90;;;;;;5073756;28;20037;-70
2023/03/19 09:36:04;;;;;;;4.13;3.42;;;11.70;99.90;;;;;;5075018;28;20061;-70
2023/03/19 09:38:30;;;;;;;21.77;7.25;;;11.80;99.90;;;;;;5072562;28;20045;-70
2023/03/19 09:41:23;;;;;;;4.22;3.83;;;11.60;99.90;;;;;;5088041;28;20032;-70
2023/03/19 09:44:02;;;;;;;11.77;6.75;;;11.40;99.90;;;;;;5080761;28;20071;-70
2023/03/19 09:46:46;;;;;;;5.00;3.75;;;11.20;99.90;;;;;;5070324;28;20050;-70
2023/03/19 09:49:20;;;;;;;5.35;3.67;;;11.20;99.90;;;;;;5069380;28;20073;-69
2023/03/19 09:51:52;;;;;;;9.82;6.93;;;11.20;99.90;;;;;;5080003;28;20028;-72
2023/03/19 09:54:35;;;;;;;13.77;8.20;;;11.30;99.90;;;;;;5075928;28;20043;-70
2023/03/19 09:57:01;;;;;;;20.67;11.52;;;11.20;99.90;;;;;;5075653;28;20100;-70
2023/03/19 09:59:28;;;;;;;17.98;7.68;;;11.20;99.90;;;;;;5071268;28;20818;-70
2023/03/19 10:02:18;;;;;;;4.85;3.85;;;11.20;99.90;;;;;;5071941;28;20021;-70
2023/03/19 10:05:08;;;;;;;0.10;0.10;;;11.20;99.90;;;;;;5072679;28;20024;-70
2023/03/19 10:07:58;;;;;;;4.15;2.65;;;11.20;99.90;;;;;;5069329;28;20036;-72
2023/03/19 10:10:57;;;;;;;4.32;2.28;;;11.40;99.90;;;;;;5072460;28;20085;-70
2023/03/19 10:13:53;;;;;;;0.30;0.30;;;11.30;99.90;;;;;;5071622;28;20025;-71
2023/03/19 10:16:22;;;;;;;0.85;0.85;;;11.30;99.90;;;;;;5072767;28;20051;-70
2023/03/19 10:18:56;;;;;;;5.80;2.92;;;11.40;99.90;;;;;;5072456;28;20032;-71
2023/03/19 10:21:39;;;;;;;12.43;5.88;;;11.40;99.90;;;;;;5071407;28;20064;-72
2023/03/19 10:24:20;;;;;;;5.00;4.15;;;11.60;99.90;;;;;;5071949;28;20055;-70
2023/03/19 10:26:46;;;;;;;2.28;1.55;;;11.50;99.90;;;;;;5062592;28;20096;-70
2023/03/19 10:29:19;;;;;;;1.77;0.60;;;11.60;99.90;;;;;;5066931;28;20020;-71
2023/03/19 10:32:20;;;;;;;8.10;5.85;;;11.80;99.90;;;;;;5068635;28;20484;-70
2023/03/19 10:34:48;;;;;;;4.65;4.15;;;11.80;99.90;;;;;;5064820;28;20491;-70
2023/03/19 10:37:27;;;;;;;14.90;4.88;;;11.40;99.90;;;;;;5058677;28;20028;-71
2023/03/19 10:39:58;;;;;;;5.47;2.83;;;11.50;99.90;;;;;;5071207;28;20056;-72
2023/03/19 10:42:31;;;;;;;1.08;0.93;;;11.60;99.90;;;;;;5066388;28;20064;-75
2023/03/19 10:45:24;;;;;;;1.65;1.35;;;11.60;99.90;;;;;;5058830;28;20032;-76
2023/03/19 10:47:51;;;;;;;7.22;4.25;;;11.70;99.90;;;;;;5068415;28;20078;-76
2023/03/19 10:50:20;;;;;;;14.88;7.95;;;11.80;99.90;;;;;;5066025;28;20029;-75
2023/03/19 10:52:51;;;;;;;18.55;5.47;;;11.60;99.90;;;;;;5055717;28;20083;-76
2023/03/19 10:55:23;;;;;;;7.20;6.45;;;11.60;99.90;;;;;;5054616;28;20025;-70
2023/03/19 10:57:55;;;;;;;1.58;1.40;;;11.60;99.90;;;;;;5060421;28;20017;-71
2023/03/19 11:00:25;;;;;;;4.95;3.60;;;11.70;99.90;;;;;;5070080;28;20052;-71
2023/03/19 11:02:54;;;;;;;14.23;4.75;;;11.70;99.90;;;;;;5074741;28;20484;-71
2023/03/19 11:05:24;;;;;;;11.73;2.38;;;11.80;99.90;;;;;;5066342;28;20021;-76
2023/03/19 11:08:02;;;;;;;6.32;3.33;;;12.10;99.90;;;;;;5063500;28;20047;-76
2023/03/19 11:10:32;;;;;;;6.20;3.03;;;11.90;99.90;;;;;;5060146;28;20033;-75
2023/03/19 11:13:03;;;;;;;0.13;0.13;;;12.00;99.90;;;;;;5065546;28;20162;-76
2023/03/19 11:15:37;;;;;;;0.60;0.55;;;12.10;99.90;;;;;;5057551;28;20025;-77
2023/03/19 11:18:20;;;;;;;3.65;1.45;;;12.30;99.90;;;;;;5065522;28;20354;-75
2023/03/19 11:21:00;;;;;;;18.33;5.35;;;12.30;99.90;;;;;;5065639;28;20040;-75
2023/03/19 11:23:30;;;;;;;4.28;2.63;;;12.40;99.90;;;;;;5060640;28;20039;-76
2023/03/19 11:26:00;;;;;;;7.60;4.85;;;12.30;99.90;;;;;;5070871;28;20028;-76
2023/03/19 11:28:31;;;;;;;4.38;1.50;;;12.40;99.90;;;;;;5066204;28;20469;-71
2023/03/19 11:31:18;;;;;;;4.53;3.45;;;12.40;99.90;;;;;;5061775;28;20037;-73
2023/03/19 11:34:01;;;;;;;6.35;1.63;;;12.30;99.90;;;;;;5064112;28;20029;-75
2023/03/19 11:36:46;;;;;;;8.63;3.95;;;12.40;99.90;;;;;;5066997;28;20071;-74
2023/03/19 11:39:26;;;;;;;12.45;3.88;;;12.40;99.90;;;;;;5068645;28;20033;-74
2023/03/19 11:42:04;;;;;;;10.88;4.22;;;12.60;99.90;;;;;;5069694;28;20042;-76
2023/03/19 11:44:56;;;;;;;3.40;1.85;;;12.70;99.90;;;;;;5061428;28;20039;-76
2023/03/19 11:47:47;;;;;;;6.07;3.92;;;12.70;99.90;;;;;;5071478;28;20048;-76
2023/03/19 11:50:48;;;;;;;2.88;2.05;;;13.60;99.90;;;;;;5070271;28;20119;-76
2023/03/19 11:53:23;;;;;;;1.60;1.50;;;14.20;99.90;;;;;;5065800;28;20025;-77
2023/03/19 11:55:58;;;;;;;9.18;5.60;;;14.50;99.90;;;;;;5069313;28;20036;-77
2023/03/19 11:58:52;;;;;;;6.03;2.85;;;14.20;99.90;;;;;;5069437;28;20053;-77
2023/03/19 12:01:46;;;;;;;2.00;0.75;;;14.20;99.90;;;;;;5068633;28;20059;-73
2023/03/19 12:04:35;;;;;;;3.80;2.63;;;13.80;99.90;;;;;;5066178;28;20017;-77
2023/03/19 12:07:15;;;;;;;11.02;4.43;;;13.30;99.90;;;;;;5067145;28;20396;-77
2023/03/19 12:10:02;;;;;;;7.18;3.55;;;13.00;99.90;;;;;;5068302;28;20029;-77
2023/03/19 12:12:33;;;;;;;2.95;1.70;;;13.20;99.90;;;;;;5069491;28;20024;-76
2023/03/19 12:15:17;;;;;;;17.50;7.22;;;12.80;99.90;;;;;;5066908;28;20373;-75
2023/03/19 12:17:49;;;;;;;4.63;2.60;;;12.50;99.90;;;;;;5072489;28;20108;-76
2023/03/19 12:20:51;;;;;;;13.57;5.82;;;12.50;99.90;;;;;;5071514;28;20124;-77
2023/03/19 12:23:46;;;;;;;6.05;3.58;;;12.80;99.90;;;;;;5069761;28;20082;-76
2023/03/19 12:26:20;;;;;;;3.30;0.95;;;12.80;99.90;;;;;;5069866;28;20368;-74
2023/03/19 12:28:58;;;;;;;11.48;5.10;;;12.90;99.90;;;;;;5071296;28;20032;-77
2023/03/19 12:31:37;;;;;;;5.75;3.15;;;12.70;99.90;;;;;;5067243;28;20083;-76
2023/03/19 12:34:12;;;;;;;1.45;1.35;;;12.50;99.90;;;;;;5067609;28;20043;-76
2023/03/19 12:36:51;;;;;;;4.25;2.60;;;12.30;99.90;;;;;;5069573;28;20104;-76
2023/03/19 12:39:24;;;;;;;5.63;3.30;;;12.40;99.90;;;;;;5069298;28;20029;-75
2023/03/19 12:41:52;;;;;;;0.70;0.60;;;12.50;99.90;;;;;;5070117;28;20203;-76
2023/03/19 12:44:27;;;;;;;5.65;3.85;;;12.40;99.90;;;;;;5066577;28;20376;-76
2023/03/19 12:46:58;;;;;;;21.88;5.32;;;12.60;99.90;;;;;;5066243;28;20496;-77
2023/03/19 12:49:30;;;;;;;7.50;4.03;;;12.50;99.90;;;;;;5071480;28;20017;-77
2023/03/19 12:52:16;;;;;;;;;;;12.40;99.90;;;;;;5065364;28;20033;-76
2023/03/19 12:54:47;;;;;;;17.70;4.50;;;12.30;99.90;;;;;;5065373;28;19943;-77
2023/03/19 12:57:41;;;;;;;4.72;2.67;;;12.50;99.90;;;;;;5074497;28;20032;-77
2023/03/19 13:00:31;;;;;;;19.88;6.40;;;12.60;99.90;;;;;;5072542;28;20045;-76
2023/03/19 13:03:04;;;;;;;3.78;3.17;;;13.10;99.90;;;;;;5072515;28;20090;-76
2023/03/19 13:05:54;;;;;;;7.63;3.13;;;13.70;99.90;;;;;;5073914;28;20016;-77
2023/03/19 13:08:46;;;;;;;3.20;2.03;;;14.50;99.90;;;;;;5073938;28;20415;-77
2023/03/19 13:11:32;;;;;;;5.57;3.63;;;14.30;99.90;;;;;;5071762;28;20404;-78